createdAt,value
2023-05-05T00:02:41.532Z,96010.00
2023-05-05T00:05:27.142Z,96003.00
2023-05-05T00:08:13.121Z,96004.00
2023-05-05T00:10:58.980Z,96010.00
2023-05-05T00:13:44.639Z,96012.00
2023-05-05T00:16:30.849Z,96005.00
2023-05-05T00:19:17.065Z,96006.00
2023-05-05T00:22:02.454Z,95998.00
2023-05-05T00:24:48.332Z,95998.00
2023-05-05T00:27:34.006Z,96003.00
2023-05-05T00:30:21.113Z,96003.00
2023-05-05T00:33:06.974Z,96005.00
2023-05-05T00:35:52.686Z,96000.00
2023-05-05T00:38:39.030Z,95988.00
2023-05-05T00:41:24.614Z,95985.00
2023-05-05T00:44:10.363Z,95994.00
2023-05-05T00:46:56.619Z,95991.00
2023-05-05T00:49:42.687Z,95989.00
2023-05-05T00:52:29.189Z,95994.00
2023-05-05T00:55:15.089Z,95990.00
2023-05-05T00:58:03.171Z,95995.00
2023-05-05T01:00:49.240Z,95998.00
2023-05-05T01:03:38.567Z,95997.00
2023-05-05T01:06:33.690Z,95992.00
2023-05-05T01:09:31.211Z,95988.00
2023-05-05T01:12:57.013Z,95984.00
2023-05-05T01:16:15.763Z,95983.00
2023-05-05T01:19:07.955Z,95990.00
2023-05-05T01:22:00.915Z,95985.00
2023-05-05T01:25:22.383Z,95987.00
2023-05-05T01:29:13.990Z,95985.00
2023-05-05T01:32:08.205Z,95993.00
2023-05-05T01:35:03.010Z,95989.00
2023-05-05T01:38:02.787Z,95990.00
2023-05-05T01:41:03.205Z,95991.00
2023-05-05T01:43:51.480Z,95989.00
2023-05-05T01:46:37.583Z,95988.00
2023-05-05T01:49:23.731Z,95982.00
2023-05-05T01:52:10.443Z,95986.00
2023-05-05T01:54:58.912Z,95984.00
2023-05-05T01:57:47.172Z,95991.00
2023-05-05T02:00:34.289Z,95987.00
2023-05-05T02:03:23.388Z,95993.00
2023-05-05T02:06:10.282Z,95987.00
2023-05-05T02:08:58.354Z,95986.00
2023-05-05T02:11:43.961Z,95983.00
2023-05-05T02:14:31.304Z,95989.00
2023-05-05T02:17:18.131Z,95987.00
2023-05-05T02:20:05.117Z,95987.00
2023-05-05T02:22:51.709Z,95979.00
2023-05-05T02:25:49.653Z,95985.00
2023-05-05T02:28:56.692Z,95985.00
2023-05-05T02:31:48.240Z,95992.00
2023-05-05T02:34:43.168Z,95984.00
2023-05-05T02:37:34.949Z,95979.00
2023-05-05T02:40:26.584Z,95978.00
2023-05-05T02:43:18.436Z,95976.00
2023-05-05T02:46:05.638Z,95976.00
2023-05-05T02:48:52.231Z,95967.00
2023-05-05T02:51:37.895Z,95975.00
2023-05-05T02:54:28.914Z,95972.00
2023-05-05T02:57:18.774Z,95980.00
2023-05-05T03:00:24.321Z,95980.00
2023-05-05T03:03:29.670Z,95985.00
2023-05-05T03:06:20.492Z,95991.00
2023-05-05T03:09:14.214Z,95986.00
2023-05-05T03:12:19.377Z,95990.00
2023-05-05T03:15:14.766Z,95981.00
2023-05-05T03:18:02.576Z,95979.00
2023-05-05T03:20:49.833Z,95985.00
2023-05-05T03:23:37.622Z,95980.00
2023-05-05T03:26:28.404Z,95977.00
2023-05-05T03:29:15.735Z,95984.00
2023-05-05T03:32:01.655Z,95982.00
2023-05-05T03:34:48.408Z,95980.00
2023-05-05T03:37:34.709Z,95983.00
2023-05-05T03:40:23.515Z,95984.00
2023-05-05T03:43:16.623Z,95985.00
2023-05-05T03:46:02.320Z,95991.00
2023-05-05T03:48:48.765Z,95986.00
2023-05-05T03:51:35.130Z,95990.00
2023-05-05T03:54:20.815Z,95996.00
2023-05-05T03:57:07.088Z,95997.00
2023-05-05T03:59:53.996Z,95997.00
2023-05-05T04:02:39.464Z,95992.00
2023-05-05T04:05:26.414Z,95997.00
2023-05-05T04:08:12.712Z,96002.00
2023-05-05T04:10:58.758Z,95996.00
2023-05-05T04:13:44.873Z,95994.00
2023-05-05T04:16:31.069Z,96001.00
2023-05-05T04:19:19.137Z,95993.00
2023-05-05T04:22:08.156Z,95996.00
2023-05-05T04:24:54.369Z,96003.00
2023-05-05T04:27:41.181Z,95996.00
2023-05-05T04:30:27.641Z,96001.00
2023-05-05T04:33:14.283Z,96001.00
2023-05-05T04:35:59.898Z,96005.00
2023-05-05T04:38:46.648Z,96003.00
2023-05-05T04:41:32.916Z,96009.00
2023-05-05T04:44:18.886Z,96018.00
2023-05-05T04:47:04.963Z,96012.00
2023-05-05T04:49:50.988Z,96014.00
2023-05-05T04:52:38.079Z,96010.00
2023-05-05T04:55:24.616Z,96006.00
2023-05-05T04:58:10.525Z,96005.00
2023-05-05T05:00:56.381Z,96010.00
2023-05-05T05:03:42.366Z,96009.00
2023-05-05T05:06:29.366Z,96007.00
2023-05-05T05:09:15.814Z,96010.00
2023-05-05T05:12:05.812Z,96021.00
2023-05-05T05:14:51.938Z,96018.00
2023-05-05T05:17:37.830Z,96023.00
2023-05-05T05:20:24.506Z,96027.00
2023-05-05T05:23:10.511Z,96022.00
2023-05-05T05:26:01.173Z,96018.00
2023-05-05T05:28:49.758Z,96014.00
2023-05-05T05:31:37.015Z,96026.00
2023-05-05T05:34:23.933Z,96023.00
2023-05-05T05:37:10.051Z,96019.00
2023-05-05T05:39:56.972Z,96016.00
2023-05-05T05:42:44.545Z,96017.00
2023-05-05T05:45:31.184Z,96013.00
2023-05-05T05:48:16.900Z,96020.00
2023-05-05T05:51:02.962Z,96011.00
2023-05-05T05:53:48.468Z,96008.00
2023-05-05T05:56:35.138Z,96002.00
2023-05-05T05:59:21.213Z,96011.00
2023-05-05T06:02:07.981Z,96021.00
2023-05-05T06:04:54.112Z,96030.00
2023-05-05T06:07:40.025Z,96024.00
2023-05-05T06:10:28.228Z,96029.00
2023-05-05T06:13:27.862Z,96030.00
2023-05-05T06:16:13.330Z,96034.00
2023-05-05T06:19:01.699Z,96033.00
2023-05-05T06:21:47.390Z,96037.00
2023-05-05T06:24:33.446Z,96025.00
2023-05-05T06:27:20.629Z,96035.00
2023-05-05T06:30:08.329Z,96038.00
2023-05-05T06:32:54.413Z,96034.00
2023-05-05T06:35:40.175Z,96030.00
2023-05-05T06:38:26.005Z,96025.00
2023-05-05T06:41:11.602Z,96026.00
2023-05-05T06:43:57.476Z,96031.00
2023-05-05T06:46:44.184Z,96031.00
2023-05-05T06:49:30.324Z,96024.00
2023-05-05T06:52:19.783Z,96034.00
2023-05-05T06:55:06.437Z,96031.00
2023-05-05T06:58:04.184Z,96032.00
2023-05-05T07:00:50.455Z,96038.00
2023-05-05T07:03:40.118Z,96031.00
2023-05-05T07:06:26.211Z,96039.00
2023-05-05T07:09:17.034Z,96044.00
2023-05-05T07:12:04.018Z,96039.00
2023-05-05T07:14:49.758Z,96047.00
2023-05-05T07:17:35.280Z,96046.00
2023-05-05T07:20:21.510Z,96054.00
2023-05-05T07:23:07.690Z,96050.00
2023-05-05T07:25:55.066Z,96053.00
2023-05-05T07:28:41.700Z,96054.00
2023-05-05T07:31:27.372Z,96057.00
2023-05-05T07:34:13.466Z,96056.00
2023-05-05T07:36:58.856Z,96054.00
2023-05-05T07:39:44.352Z,96056.00
2023-05-05T07:42:30.071Z,96050.00
2023-05-05T07:45:16.406Z,96047.00
2023-05-05T07:48:02.661Z,96053.00
2023-05-05T07:50:48.419Z,96046.00
2023-05-05T07:53:34.184Z,96047.00
2023-05-05T07:56:21.662Z,96042.00
2023-05-05T07:59:08.550Z,96035.00
2023-05-05T08:01:55.050Z,96036.00
2023-05-05T08:04:43.413Z,96028.00
2023-05-05T08:07:29.210Z,96039.00
2023-05-05T08:10:16.396Z,96040.00
2023-05-05T08:13:03.225Z,96041.00
2023-05-05T08:15:55.743Z,96038.00
2023-05-05T08:18:41.608Z,96043.00
2023-05-05T08:21:27.971Z,96042.00
2023-05-05T08:24:14.157Z,96046.00
2023-05-05T08:26:59.789Z,96052.00
2023-05-05T08:29:46.332Z,96057.00
2023-05-05T08:32:32.417Z,96046.00
2023-05-05T08:35:18.429Z,96045.00
2023-05-05T08:38:04.483Z,96054.00
2023-05-05T08:40:53.399Z,96045.00
2023-05-05T08:43:39.769Z,96045.00
2023-05-05T08:46:28.169Z,96050.00
2023-05-05T08:49:16.557Z,96050.00
2023-05-05T08:52:05.709Z,96044.00
2023-05-05T08:54:56.672Z,96046.00
2023-05-05T08:57:56.648Z,96059.00
2023-05-05T09:00:45.412Z,96058.00
2023-05-05T09:03:34.157Z,96062.00
2023-05-05T09:06:22.419Z,96066.00
2023-05-05T09:09:09.505Z,96065.00
2023-05-05T09:11:58.566Z,96063.00
2023-05-05T09:14:46.291Z,96062.00
2023-05-05T09:17:31.999Z,96060.00
2023-05-05T09:20:18.417Z,96062.00
2023-05-05T09:23:16.269Z,96053.00
2023-05-05T09:26:08.971Z,96048.00
2023-05-05T09:28:55.252Z,96054.00
2023-05-05T09:31:43.467Z,96052.00
2023-05-05T09:34:29.416Z,96046.00
2023-05-05T09:37:31.350Z,96047.00
2023-05-05T09:40:24.310Z,96047.00
2023-05-05T09:43:10.317Z,96039.00
2023-05-05T09:46:07.924Z,96051.00
2023-05-05T09:48:54.746Z,96038.00
2023-05-05T09:51:40.968Z,96045.00
2023-05-05T09:54:30.010Z,96041.00
2023-05-05T09:57:33.808Z,96043.00
2023-05-05T10:00:21.826Z,96044.00
2023-05-05T10:03:08.636Z,96044.00
2023-05-05T10:06:01.241Z,96039.00
2023-05-05T10:09:02.248Z,96036.00
2023-05-05T10:11:48.457Z,96048.00
2023-05-05T10:14:39.132Z,96042.00
2023-05-05T10:17:27.390Z,96037.00
2023-05-05T10:20:16.061Z,96041.00
2023-05-05T10:23:17.427Z,96035.00
2023-05-05T10:26:08.184Z,96032.00
2023-05-05T10:29:04.468Z,96029.00
2023-05-05T10:31:54.932Z,96026.00
2023-05-05T10:34:55.902Z,96013.00
2023-05-05T10:37:43.129Z,96024.00
2023-05-05T10:40:30.767Z,96015.00
2023-05-05T10:43:17.945Z,96022.00
2023-05-05T10:46:05.078Z,96018.00
2023-05-05T10:48:58.707Z,96018.00
2023-05-05T10:52:23.407Z,96013.00
2023-05-05T10:55:38.998Z,96012.00
2023-05-05T10:58:55.300Z,96009.00
2023-05-05T11:01:45.218Z,96007.00
2023-05-05T11:04:31.796Z,96001.00
2023-05-05T11:07:24.744Z,95999.00
2023-05-05T11:10:13.461Z,95997.00
2023-05-05T11:13:00.451Z,95996.00
2023-05-05T11:15:46.176Z,95994.00
2023-05-05T11:18:40.178Z,95986.00
2023-05-05T11:21:28.309Z,95984.00
2023-05-05T11:24:32.343Z,95982.00
2023-05-05T11:27:18.833Z,95974.00
2023-05-05T11:30:08.945Z,95977.00
2023-05-05T11:33:29.741Z,95962.00
2023-05-05T11:36:20.544Z,95965.00
2023-05-05T11:39:11.838Z,95961.00
2023-05-05T11:42:23.402Z,95955.00
2023-05-05T11:45:25.127Z,95960.00
2023-05-05T11:48:27.398Z,95962.00
2023-05-05T11:51:15.023Z,95948.00
2023-05-05T11:54:01.120Z,95945.00
2023-05-05T11:56:55.781Z,95941.00
2023-05-05T12:00:06.357Z,95942.00
2023-05-05T12:03:02.946Z,95944.00
2023-05-05T12:05:49.229Z,95939.00
2023-05-05T12:08:45.676Z,95936.00
2023-05-05T12:11:37.478Z,95930.00
2023-05-05T12:14:31.099Z,95935.00
2023-05-05T12:17:20.804Z,95931.00
2023-05-05T12:20:07.944Z,95929.00
2023-05-05T12:23:03.169Z,95926.00
2023-05-05T12:25:49.693Z,95934.00
2023-05-05T12:28:48.728Z,95924.00
2023-05-05T12:31:43.285Z,95920.00
2023-05-05T12:34:31.107Z,95924.00
2023-05-05T12:37:19.285Z,95915.00
2023-05-05T12:40:06.727Z,95911.00
2023-05-05T12:42:53.716Z,95916.00
2023-05-05T12:45:41.009Z,95916.00
2023-05-05T12:48:26.838Z,95910.00
2023-05-05T12:51:23.650Z,95909.00
2023-05-05T12:54:11.459Z,95903.00
2023-05-05T12:56:57.870Z,95900.00
2023-05-05T12:59:44.022Z,95901.00
2023-05-05T13:02:35.876Z,95896.00
2023-05-05T13:05:41.061Z,95890.00
2023-05-05T13:08:45.623Z,95877.00
2023-05-05T13:11:35.816Z,95876.00
2023-05-05T13:14:22.199Z,95871.00
2023-05-05T13:17:08.034Z,95866.00
2023-05-05T13:19:53.655Z,95867.00
2023-05-05T13:22:39.299Z,95850.00
2023-05-05T13:25:25.249Z,95849.00
2023-05-05T13:28:11.310Z,95845.00
2023-05-05T13:30:58.746Z,95837.00
2023-05-05T13:33:45.161Z,95837.00
2023-05-05T13:36:31.158Z,95830.00
2023-05-05T13:39:16.771Z,95824.00
2023-05-05T13:42:02.567Z,95817.00
2023-05-05T13:44:48.337Z,95810.00
2023-05-05T13:47:34.135Z,95815.00
2023-05-05T13:50:19.993Z,95810.00
2023-05-05T13:53:06.064Z,95813.00
2023-05-05T13:55:54.656Z,95798.00
2023-05-05T13:58:41.588Z,95791.00
2023-05-05T14:01:27.682Z,95787.00
2023-05-05T14:04:13.686Z,95782.00
2023-05-05T14:07:00.086Z,95781.00
2023-05-05T14:09:45.789Z,95774.00
2023-05-05T14:12:32.618Z,95774.00
2023-05-05T14:15:18.661Z,95766.00
2023-05-05T14:18:13.172Z,95771.00
2023-05-05T14:21:00.547Z,95769.00
2023-05-05T14:23:46.508Z,95767.00
2023-05-05T14:26:33.777Z,95761.00
2023-05-05T14:29:24.005Z,95765.00
2023-05-05T14:32:10.910Z,95760.00
2023-05-05T14:35:00.901Z,95763.00
2023-05-05T14:37:47.720Z,95758.00
2023-05-05T14:40:36.466Z,95753.00
2023-05-05T14:43:35.141Z,95757.00
2023-05-05T14:46:26.395Z,95759.00
2023-05-05T14:49:30.645Z,95766.00
2023-05-05T14:52:27.763Z,95767.00
2023-05-05T14:58:57.020Z,95762.00
2023-05-05T15:01:51.134Z,95763.00
2023-05-05T15:04:36.945Z,95755.00
2023-05-05T15:07:29.900Z,95764.00
2023-05-05T15:10:19.728Z,95774.00
2023-05-05T15:13:17.468Z,95764.00
2023-05-05T15:16:03.941Z,95752.00
2023-05-05T15:19:17.328Z,95758.00
2023-05-05T15:22:24.124Z,95759.00
2023-05-05T15:25:13.492Z,95766.00
2023-05-05T15:28:01.024Z,95761.00
2023-05-05T15:30:47.570Z,95752.00
2023-05-05T15:33:33.844Z,95756.00
2023-05-05T15:36:23.114Z,95764.00
2023-05-05T15:39:09.464Z,95766.00
2023-05-05T15:41:54.951Z,95772.00
2023-05-05T15:44:40.641Z,95754.00
2023-05-05T15:47:26.881Z,95759.00
2023-05-05T15:50:13.241Z,95763.00
2023-05-05T15:52:59.740Z,95750.00
2023-05-05T15:56:11.770Z,95762.00
2023-05-05T15:58:58.133Z,95766.00
2023-05-05T16:01:44.405Z,95768.00
2023-05-05T16:04:31.996Z,95756.00
2023-05-05T16:07:18.521Z,95756.00
2023-05-05T16:10:04.535Z,95754.00
2023-05-05T16:12:51.918Z,95756.00
2023-05-05T16:15:40.774Z,95758.00
2023-05-05T16:18:27.292Z,95758.00
2023-05-05T16:21:13.054Z,95754.00
2023-05-05T16:23:58.946Z,95755.00
2023-05-05T16:26:45.091Z,95754.00
2023-05-05T16:30:10.553Z,95744.00
2023-05-05T16:32:56.685Z,95743.00
2023-05-05T16:35:46.604Z,95734.00
2023-05-05T16:38:32.489Z,95739.00
2023-05-05T16:41:17.966Z,95728.00
2023-05-05T16:44:04.716Z,95734.00
2023-05-05T16:46:50.574Z,95724.00
2023-05-05T16:49:36.804Z,95717.00
2023-05-05T16:52:22.868Z,95715.00
2023-05-05T16:55:10.257Z,95706.00
2023-05-05T16:57:56.034Z,95710.00
2023-05-05T17:00:42.386Z,95689.00
2023-05-05T17:03:28.562Z,95660.00
2023-05-05T17:06:14.734Z,95647.00
2023-05-05T17:09:01.099Z,95677.00
2023-05-05T17:11:47.082Z,95721.00
2023-05-05T17:14:33.946Z,95743.00
2023-05-05T17:17:19.734Z,95786.00
2023-05-05T17:20:06.706Z,95844.00
2023-05-05T17:22:52.322Z,95878.00
2023-05-05T17:25:38.087Z,95902.00
2023-05-05T17:28:24.270Z,95903.00
2023-05-05T17:31:11.052Z,95920.00
2023-05-05T17:33:57.474Z,95935.00
2023-05-05T17:36:43.303Z,95952.00
2023-05-05T17:39:30.769Z,95940.00
2023-05-05T17:42:22.983Z,95922.00
2023-05-05T17:45:12.108Z,95924.00
2023-05-05T17:48:00.018Z,95926.00
2023-05-05T17:50:47.171Z,95948.00
2023-05-05T17:53:33.021Z,95951.00
2023-05-05T17:56:18.502Z,95926.00
2023-05-05T17:59:07.889Z,95903.00
2023-05-05T18:01:54.304Z,95856.00
2023-05-05T18:04:40.387Z,95821.00
2023-05-05T18:07:29.031Z,95826.00
2023-05-05T18:10:16.733Z,95815.00
2023-05-05T18:13:03.534Z,95806.00
2023-05-05T18:15:49.639Z,95805.00
2023-05-05T18:18:38.534Z,95833.00
2023-05-05T18:21:24.744Z,95843.00
2023-05-05T18:24:19.275Z,95834.00
2023-05-05T18:27:09.653Z,95836.00
2023-05-05T18:29:55.267Z,95826.00
2023-05-05T18:32:41.615Z,95827.00
2023-05-05T18:35:29.718Z,95834.00
2023-05-05T18:38:15.816Z,95834.00
2023-05-05T18:41:02.089Z,95837.00
2023-05-05T18:43:48.313Z,95842.00
2023-05-05T18:46:35.139Z,95843.00
2023-05-05T18:49:23.691Z,95873.00
2023-05-05T18:52:09.984Z,95878.00
2023-05-05T18:54:58.512Z,95892.00
2023-05-05T18:57:55.435Z,95900.00
2023-05-05T19:00:44.879Z,95918.00
2023-05-05T19:03:30.978Z,95909.00
2023-05-05T19:11:46.727Z,95934.00
2023-05-05T19:14:45.412Z,95942.00
2023-05-05T19:17:33.400Z,95951.00
2023-05-05T19:20:45.305Z,95940.00
2023-05-05T19:23:36.150Z,95956.00
2023-05-05T19:26:35.006Z,95948.00
2023-05-05T19:29:32.630Z,95961.00
2023-05-05T19:32:26.991Z,95941.00
2023-05-05T19:35:13.831Z,95941.00
2023-05-05T19:38:11.686Z,95956.00
2023-05-05T19:40:57.758Z,95958.00
2023-05-05T19:44:22.076Z,95966.00
2023-05-05T19:47:09.023Z,95972.00
2023-05-05T19:49:56.277Z,95976.00
2023-05-05T19:52:42.392Z,95974.00
2023-05-05T19:55:28.642Z,95983.00
2023-05-05T19:58:16.244Z,95986.00
2023-05-05T20:01:02.277Z,95992.00
2023-05-05T20:03:48.586Z,95992.00
2023-05-05T20:06:35.773Z,96002.00
2023-05-05T20:09:22.676Z,96007.00
2023-05-05T20:12:08.450Z,96019.00
2023-05-05T20:14:55.129Z,96018.00
2023-05-05T20:17:41.004Z,96016.00
2023-05-05T20:20:27.802Z,96022.00
2023-05-05T20:23:13.912Z,96038.00
2023-05-05T20:26:00.818Z,96035.00
2023-05-05T20:28:47.137Z,96032.00
2023-05-05T20:32:20.811Z,96039.00
2023-05-05T20:35:07.683Z,96022.00
2023-05-05T20:37:53.801Z,96034.00
2023-05-05T20:40:42.051Z,96025.00
2023-05-05T20:43:28.407Z,96027.00
2023-05-05T20:46:14.965Z,96026.00
2023-05-05T20:49:01.281Z,96020.00
2023-05-05T20:51:47.363Z,96026.00
2023-05-05T20:54:36.641Z,96019.00
2023-05-05T20:57:22.652Z,96012.00
2023-05-05T21:00:09.661Z,96015.00
2023-05-05T21:02:57.024Z,96008.00
2023-05-05T21:05:44.798Z,96010.00
2023-05-05T21:08:55.102Z,95995.00
2023-05-05T21:11:40.895Z,95996.00
2023-05-05T21:14:26.959Z,95991.00
2023-05-05T21:17:13.182Z,95991.00
2023-05-05T21:19:59.531Z,95992.00
2023-05-05T21:22:45.947Z,95991.00
2023-05-05T21:25:32.356Z,95975.00
2023-05-05T21:28:18.462Z,95982.00
2023-05-05T21:31:21.050Z,95983.00
2023-05-05T21:34:07.867Z,95977.00
2023-05-05T21:36:54.229Z,95975.00
2023-05-05T21:39:40.737Z,95975.00
2023-05-05T21:42:27.023Z,95971.00
2023-05-05T21:45:13.471Z,95977.00
2023-05-05T21:53:17.690Z,95967.00
2023-05-05T21:56:13.826Z,95955.00
2023-05-05T21:59:09.419Z,95962.00
2023-05-05T22:02:05.225Z,95962.00
2023-05-05T22:04:52.184Z,95959.00
2023-05-05T22:08:16.661Z,95959.00
2023-05-05T22:59:48.898Z,95961.00
2023-05-05T23:03:07.564Z,95962.00
2023-05-05T23:11:07.913Z,95945.00
2023-05-05T23:14:04.237Z,95959.00
2023-05-05T23:17:03.813Z,95953.00
2023-05-05T23:20:00.036Z,95941.00
2023-05-05T23:31:49.126Z,95939.00
2023-05-05T23:35:11.227Z,95931.00
2023-05-05T23:39:04.175Z,95945.00
2023-05-05T23:42:13.693Z,95951.00
2023-05-05T23:45:34.636Z,95946.00
2023-05-05T23:48:21.659Z,95946.00
2023-05-05T23:51:07.738Z,95944.00
2023-05-05T23:56:23.665Z,95941.00
2023-05-05T23:58:18.470Z,95946.00
